Slave Lake, Slave Lake Airport (CYZH)

NameSlave Lake Airport
CitySlave Lake
CountryCanada
ICAOCYZH
IATAYZH
Altitude583 m
CoordinatesGoogle Map
Live Air TrafficLiveATC.net
METARCYZH 211800Z AUTO 10005KT 020V130 9SM FEW220 SCT240 12/M12 A3007 RMK SLP206
2019-04-21 18:00:00 Wind: East (100°) 2.57 m/s - Visibility: 14484.06 m - Temperature: 12 °C - Dew point: -12 °C - Humidity: 17.6% - Pressure: 1018.29 hPa
Statistics

The table below shows the detailed information of all flights to/from Slave Lake, Slave Lake Airport (CYZH).